sensor_id;sensor_type;location;lat;lon;timestamp;P1;durP1;ratioP1;P2;durP2;ratioP2
17145;SDS011;8688;54.444;18.444;2023-09-07T00:00:14;9.50;;;7.53;;
17145;SDS011;8688;54.444;18.444;2023-09-07T00:02:42;11.02;;;7.07;;
17145;SDS011;8688;54.444;18.444;2023-09-07T00:05:09;8.55;;;6.85;;
17145;SDS011;8688;54.444;18.444;2023-09-07T00:07:38;9.45;;;7.28;;
17145;SDS011;8688;54.444;18.444;2023-09-07T00:10:08;17.58;;;8.38;;
17145;SDS011;8688;54.444;18.444;2023-09-07T00:12:35;8.45;;;6.70;;
17145;SDS011;8688;54.444;18.444;2023-09-07T00:15:04;10.63;;;7.13;;
17145;SDS011;8688;54.444;18.444;2023-09-07T00:17:32;9.57;;;6.38;;
17145;SDS011;8688;54.444;18.444;2023-09-07T00:20:00;9.02;;;6.55;;
17145;SDS011;8688;54.444;18.444;2023-09-07T00:22:29;8.85;;;7.30;;
17145;SDS011;8688;54.444;18.444;2023-09-07T00:24:58;11.55;;;7.20;;
17145;SDS011;8688;54.444;18.444;2023-09-07T00:27:27;8.38;;;6.55;;
17145;SDS011;8688;54.444;18.444;2023-09-07T00:29:54;31.35;;;7.82;;
17145;SDS011;8688;54.444;18.444;2023-09-07T00:32:22;17.35;;;9.10;;
17145;SDS011;8688;54.444;18.444;2023-09-07T00:34:50;9.57;;;7.45;;
17145;SDS011;8688;54.444;18.444;2023-09-07T00:37:18;9.38;;;7.45;;
17145;SDS011;8688;54.444;18.444;2023-09-07T00:39:45;12.10;;;8.23;;
17145;SDS011;8688;54.444;18.444;2023-09-07T00:42:13;12.73;;;8.77;;
17145;SDS011;8688;54.444;18.444;2023-09-07T00:44:42;13.35;;;9.75;;
17145;SDS011;8688;54.444;18.444;2023-09-07T00:47:09;13.23;;;9.98;;
17145;SDS011;8688;54.444;18.444;2023-09-07T00:49:39;14.90;;;9.40;;
17145;SDS011;8688;54.444;18.444;2023-09-07T00:52:07;13.52;;;10.10;;
17145;SDS011;8688;54.444;18.444;2023-09-07T00:54:35;17.30;;;11.13;;
17145;SDS011;8688;54.444;18.444;2023-09-07T00:57:06;14.45;;;10.77;;
17145;SDS011;8688;54.444;18.444;2023-09-07T00:59:33;15.55;;;10.85;;
17145;SDS011;8688;54.444;18.444;2023-09-07T01:02:03;16.27;;;11.95;;
17145;SDS011;8688;54.444;18.444;2023-09-07T01:04:31;15.75;;;11.35;;
17145;SDS011;8688;54.444;18.444;2023-09-07T01:07:00;18.10;;;11.85;;
17145;SDS011;8688;54.444;18.444;2023-09-07T01:09:33;15.80;;;11.63;;
17145;SDS011;8688;54.444;18.444;2023-09-07T01:12:03;16.90;;;12.75;;
17145;SDS011;8688;54.444;18.444;2023-09-07T01:14:35;16.65;;;11.57;;
17145;SDS011;8688;54.444;18.444;2023-09-07T01:17:05;16.10;;;11.30;;
17145;SDS011;8688;54.444;18.444;2023-09-07T01:19:33;15.55;;;11.52;;
17145;SDS011;8688;54.444;18.444;2023-09-07T01:22:03;18.15;;;13.00;;
17145;SDS011;8688;54.444;18.444;2023-09-07T01:24:31;15.50;;;12.13;;
17145;SDS011;8688;54.444;18.444;2023-09-07T01:27:01;19.05;;;12.93;;
17145;SDS011;8688;54.444;18.444;2023-09-07T01:29:29;16.80;;;12.35;;
17145;SDS011;8688;54.444;18.444;2023-09-07T01:31:59;15.35;;;12.55;;
17145;SDS011;8688;54.444;18.444;2023-09-07T01:34:26;18.05;;;12.98;;
17145;SDS011;8688;54.444;18.444;2023-09-07T01:36:54;18.15;;;12.35;;
17145;SDS011;8688;54.444;18.444;2023-09-07T01:39:23;16.15;;;12.82;;
17145;SDS011;8688;54.444;18.444;2023-09-07T01:41:51;17.77;;;11.65;;
17145;SDS011;8688;54.444;18.444;2023-09-07T01:44:19;15.38;;;11.43;;
17145;SDS011;8688;54.444;18.444;2023-09-07T01:46:47;15.65;;;11.55;;
17145;SDS011;8688;54.444;18.444;2023-09-07T01:49:15;17.23;;;12.23;;
17145;SDS011;8688;54.444;18.444;2023-09-07T01:51:42;15.27;;;11.43;;
17145;SDS011;8688;54.444;18.444;2023-09-07T01:54:10;13.73;;;11.02;;
17145;SDS011;8688;54.444;18.444;2023-09-07T01:56:39;14.55;;;11.40;;
17145;SDS011;8688;54.444;18.444;2023-09-07T01:59:07;12.63;;;10.43;;
17145;SDS011;8688;54.444;18.444;2023-09-07T02:01:35;15.35;;;11.27;;
17145;SDS011;8688;54.444;18.444;2023-09-07T02:04:04;15.07;;;10.50;;
17145;SDS011;8688;54.444;18.444;2023-09-07T02:06:32;18.75;;;11.65;;
17145;SDS011;8688;54.444;18.444;2023-09-07T02:09:00;16.20;;;12.38;;
17145;SDS011;8688;54.444;18.444;2023-09-07T02:11:29;15.35;;;11.88;;
17145;SDS011;8688;54.444;18.444;2023-09-07T02:13:58;15.80;;;11.38;;
17145;SDS011;8688;54.444;18.444;2023-09-07T02:16:26;16.15;;;12.05;;
17145;SDS011;8688;54.444;18.444;2023-09-07T02:19:00;17.38;;;12.13;;
17145;SDS011;8688;54.444;18.444;2023-09-07T02:21:29;14.95;;;11.63;;
17145;SDS011;8688;54.444;18.444;2023-09-07T02:23:57;16.27;;;12.00;;
17145;SDS011;8688;54.444;18.444;2023-09-07T02:26:25;14.73;;;11.40;;
17145;SDS011;8688;54.444;18.444;2023-09-07T02:28:52;17.38;;;12.32;;
17145;SDS011;8688;54.444;18.444;2023-09-07T02:31:23;17.40;;;12.55;;
17145;SDS011;8688;54.444;18.444;2023-09-07T02:33:51;18.27;;;12.52;;
17145;SDS011;8688;54.444;18.444;2023-09-07T02:36:19;16.58;;;12.02;;
17145;SDS011;8688;54.444;18.444;2023-09-07T02:38:46;19.85;;;12.93;;
17145;SDS011;8688;54.444;18.444;2023-09-07T02:41:14;18.15;;;13.20;;
17145;SDS011;8688;54.444;18.444;2023-09-07T02:43:42;19.67;;;13.82;;
17145;SDS011;8688;54.444;18.444;2023-09-07T02:46:12;20.80;;;13.98;;
17145;SDS011;8688;54.444;18.444;2023-09-07T02:48:41;19.77;;;12.85;;
17145;SDS011;8688;54.444;18.444;2023-09-07T02:51:08;18.35;;;13.05;;
17145;SDS011;8688;54.444;18.444;2023-09-07T02:53:36;16.90;;;11.60;;
17145;SDS011;8688;54.444;18.444;2023-09-07T02:56:04;14.65;;;11.63;;
17145;SDS011;8688;54.444;18.444;2023-09-07T02:58:33;14.50;;;11.15;;
17145;SDS011;8688;54.444;18.444;2023-09-07T03:01:05;14.18;;;10.73;;
17145;SDS011;8688;54.444;18.444;2023-09-07T03:03:34;17.85;;;11.93;;
17145;SDS011;8688;54.444;18.444;2023-09-07T03:06:09;15.43;;;10.88;;
17145;SDS011;8688;54.444;18.444;2023-09-07T03:08:37;16.52;;;11.57;;
17145;SDS011;8688;54.444;18.444;2023-09-07T03:11:04;16.48;;;10.85;;
17145;SDS011;8688;54.444;18.444;2023-09-07T03:13:32;14.68;;;11.48;;
17145;SDS011;8688;54.444;18.444;2023-09-07T03:16:00;17.65;;;12.02;;
17145;SDS011;8688;54.444;18.444;2023-09-07T03:18:29;15.02;;;11.05;;
17145;SDS011;8688;54.444;18.444;2023-09-07T03:20:57;16.05;;;12.10;;
17145;SDS011;8688;54.444;18.444;2023-09-07T03:23:28;15.68;;;11.27;;
17145;SDS011;8688;54.444;18.444;2023-09-07T03:25:56;17.23;;;12.43;;
17145;SDS011;8688;54.444;18.444;2023-09-07T03:28:25;15.98;;;11.20;;
17145;SDS011;8688;54.444;18.444;2023-09-07T03:30:53;14.85;;;11.40;;
17145;SDS011;8688;54.444;18.444;2023-09-07T03:33:21;18.60;;;12.50;;
17145;SDS011;8688;54.444;18.444;2023-09-07T03:35:49;16.90;;;12.40;;
17145;SDS011;8688;54.444;18.444;2023-09-07T03:38:18;17.75;;;12.25;;
17145;SDS011;8688;54.444;18.444;2023-09-07T03:40:47;15.38;;;11.85;;
17145;SDS011;8688;54.444;18.444;2023-09-07T03:43:17;18.42;;;12.82;;
17145;SDS011;8688;54.444;18.444;2023-09-07T03:45:45;18.30;;;12.32;;
17145;SDS011;8688;54.444;18.444;2023-09-07T03:48:12;17.20;;;12.90;;
17145;SDS011;8688;54.444;18.444;2023-09-07T03:50:40;17.55;;;11.90;;
17145;SDS011;8688;54.444;18.444;2023-09-07T03:53:08;15.52;;;12.00;;
17145;SDS011;8688;54.444;18.444;2023-09-07T03:55:40;16.55;;;12.25;;
17145;SDS011;8688;54.444;18.444;2023-09-07T03:58:11;14.18;;;11.50;;
17145;SDS011;8688;54.444;18.444;2023-09-07T04:00:39;12.98;;;10.95;;
17145;SDS011;8688;54.444;18.444;2023-09-07T04:03:06;17.08;;;11.55;;
17145;SDS011;8688;54.444;18.444;2023-09-07T04:05:36;15.88;;;10.98;;
17145;SDS011;8688;54.444;18.444;2023-09-07T04:08:05;11.95;;;10.15;;
17145;SDS011;8688;54.444;18.444;2023-09-07T04:10:35;15.98;;;10.48;;
17145;SDS011;8688;54.444;18.444;2023-09-07T04:13:04;12.50;;;9.88;;
17145;SDS011;8688;54.444;18.444;2023-09-07T04:15:39;17.58;;;11.00;;
17145;SDS011;8688;54.444;18.444;2023-09-07T04:18:09;14.15;;;9.77;;
17145;SDS011;8688;54.444;18.444;2023-09-07T04:20:38;14.02;;;9.98;;
17145;SDS011;8688;54.444;18.444;2023-09-07T04:23:06;14.30;;;9.40;;
17145;SDS011;8688;54.444;18.444;2023-09-07T04:25:33;12.52;;;8.77;;
17145;SDS011;8688;54.444;18.444;2023-09-07T04:28:02;16.00;;;10.35;;
17145;SDS011;8688;54.444;18.444;2023-09-07T04:30:30;14.48;;;10.15;;
17145;SDS011;8688;54.444;18.444;2023-09-07T04:32:59;13.63;;;11.52;;
17145;SDS011;8688;54.444;18.444;2023-09-07T04:35:28;18.95;;;11.73;;
17145;SDS011;8688;54.444;18.444;2023-09-07T04:37:57;15.32;;;11.18;;
17145;SDS011;8688;54.444;18.444;2023-09-07T04:40:25;15.80;;;10.32;;
17145;SDS011;8688;54.444;18.444;2023-09-07T04:42:52;17.60;;;11.45;;
17145;SDS011;8688;54.444;18.444;2023-09-07T04:45:20;14.10;;;11.23;;
17145;SDS011;8688;54.444;18.444;2023-09-07T04:47:49;13.23;;;10.50;;
17145;SDS011;8688;54.444;18.444;2023-09-07T04:50:18;15.70;;;11.82;;
17145;SDS011;8688;54.444;18.444;2023-09-07T04:52:46;16.50;;;10.32;;
17145;SDS011;8688;54.444;18.444;2023-09-07T04:55:14;14.95;;;11.27;;
17145;SDS011;8688;54.444;18.444;2023-09-07T04:57:42;14.90;;;10.55;;
17145;SDS011;8688;54.444;18.444;2023-09-07T05:00:10;15.52;;;10.82;;
17145;SDS011;8688;54.444;18.444;2023-09-07T05:02:39;16.33;;;10.40;;
17145;SDS011;8688;54.444;18.444;2023-09-07T05:05:08;13.45;;;9.88;;
17145;SDS011;8688;54.444;18.444;2023-09-07T05:07:37;13.57;;;9.88;;
17145;SDS011;8688;54.444;18.444;2023-09-07T05:10:13;12.52;;;9.38;;
17145;SDS011;8688;54.444;18.444;2023-09-07T05:12:40;12.95;;;9.38;;
17145;SDS011;8688;54.444;18.444;2023-09-07T05:15:09;12.27;;;8.93;;
17145;SDS011;8688;54.444;18.444;2023-09-07T05:17:37;11.70;;;8.95;;
17145;SDS011;8688;54.444;18.444;2023-09-07T05:20:05;11.63;;;8.50;;
17145;SDS011;8688;54.444;18.444;2023-09-07T05:22:34;10.48;;;8.20;;
17145;SDS011;8688;54.444;18.444;2023-09-07T05:25:08;13.50;;;9.20;;
17145;SDS011;8688;54.444;18.444;2023-09-07T05:27:37;10.85;;;8.40;;
17145;SDS011;8688;54.444;18.444;2023-09-07T05:30:05;10.10;;;7.85;;
17145;SDS011;8688;54.444;18.444;2023-09-07T05:32:34;10.07;;;8.68;;
17145;SDS011;8688;54.444;18.444;2023-09-07T05:35:01;10.43;;;8.07;;
17145;SDS011;8688;54.444;18.444;2023-09-07T05:37:33;13.30;;;8.95;;
17145;SDS011;8688;54.444;18.444;2023-09-07T05:40:01;14.90;;;8.65;;
17145;SDS011;8688;54.444;18.444;2023-09-07T05:42:32;13.75;;;7.90;;
17145;SDS011;8688;54.444;18.444;2023-09-07T05:45:00;8.63;;;6.80;;
17145;SDS011;8688;54.444;18.444;2023-09-07T05:47:28;11.43;;;7.35;;
17145;SDS011;8688;54.444;18.444;2023-09-07T05:49:56;8.77;;;7.57;;
17145;SDS011;8688;54.444;18.444;2023-09-07T05:52:27;14.55;;;7.72;;
17145;SDS011;8688;54.444;18.444;2023-09-07T05:54:54;11.32;;;7.38;;
17145;SDS011;8688;54.444;18.444;2023-09-07T05:57:22;9.82;;;7.15;;
17145;SDS011;8688;54.444;18.444;2023-09-07T05:59:52;8.95;;;7.50;;
17145;SDS011;8688;54.444;18.444;2023-09-07T06:02:19;10.25;;;7.57;;
17145;SDS011;8688;54.444;18.444;2023-09-07T06:04:48;11.85;;;7.47;;
17145;SDS011;8688;54.444;18.444;2023-09-07T06:07:18;15.98;;;7.90;;
17145;SDS011;8688;54.444;18.444;2023-09-07T06:09:46;13.90;;;7.55;;
17145;SDS011;8688;54.444;18.444;2023-09-07T06:12:14;10.13;;;7.13;;
17145;SDS011;8688;54.444;18.444;2023-09-07T06:14:42;10.20;;;6.85;;
17145;SDS011;8688;54.444;18.444;2023-09-07T06:17:13;9.60;;;7.07;;
17145;SDS011;8688;54.444;18.444;2023-09-07T06:19:40;9.20;;;6.68;;
17145;SDS011;8688;54.444;18.444;2023-09-07T06:22:08;11.50;;;6.50;;
17145;SDS011;8688;54.444;18.444;2023-09-07T06:24:36;8.73;;;6.90;;
17145;SDS011;8688;54.444;18.444;2023-09-07T06:27:04;10.70;;;7.15;;
17145;SDS011;8688;54.444;18.444;2023-09-07T06:29:31;9.80;;;6.55;;
17145;SDS011;8688;54.444;18.444;2023-09-07T06:31:59;11.43;;;7.03;;
17145;SDS011;8688;54.444;18.444;2023-09-07T06:34:28;10.40;;;7.45;;
17145;SDS011;8688;54.444;18.444;2023-09-07T06:36:56;11.18;;;7.07;;
17145;SDS011;8688;54.444;18.444;2023-09-07T06:39:24;13.35;;;6.93;;
17145;SDS011;8688;54.444;18.444;2023-09-07T06:41:52;11.75;;;6.43;;
17145;SDS011;8688;54.444;18.444;2023-09-07T06:44:19;10.00;;;6.95;;
17145;SDS011;8688;54.444;18.444;2023-09-07T06:46:47;9.88;;;6.65;;
17145;SDS011;8688;54.444;18.444;2023-09-07T06:49:15;9.68;;;6.50;;
17145;SDS011;8688;54.444;18.444;2023-09-07T06:51:44;9.93;;;6.07;;
17145;SDS011;8688;54.444;18.444;2023-09-07T06:54:12;9.82;;;6.95;;
17145;SDS011;8688;54.444;18.444;2023-09-07T06:56:42;7.88;;;6.45;;
17145;SDS011;8688;54.444;18.444;2023-09-07T06:59:12;7.45;;;6.63;;
17145;SDS011;8688;54.444;18.444;2023-09-07T07:01:39;10.30;;;7.53;;
17145;SDS011;8688;54.444;18.444;2023-09-07T07:04:07;11.90;;;7.93;;
17145;SDS011;8688;54.444;18.444;2023-09-07T07:06:37;14.88;;;7.10;;
17145;SDS011;8688;54.444;18.444;2023-09-07T07:09:07;11.15;;;7.00;;
17145;SDS011;8688;54.444;18.444;2023-09-07T07:11:36;10.05;;;6.65;;
17145;SDS011;8688;54.444;18.444;2023-09-07T07:14:04;8.95;;;6.72;;
17145;SDS011;8688;54.444;18.444;2023-09-07T07:16:33;10.90;;;7.47;;
17145;SDS011;8688;54.444;18.444;2023-09-07T07:19:01;10.75;;;7.07;;
17145;SDS011;8688;54.444;18.444;2023-09-07T07:21:28;8.90;;;7.38;;
17145;SDS011;8688;54.444;18.444;2023-09-07T07:23:56;11.32;;;7.10;;
17145;SDS011;8688;54.444;18.444;2023-09-07T07:26:25;13.45;;;8.30;;
17145;SDS011;8688;54.444;18.444;2023-09-07T07:28:53;11.18;;;7.78;;
17145;SDS011;8688;54.444;18.444;2023-09-07T07:31:21;11.38;;;7.90;;
17145;SDS011;8688;54.444;18.444;2023-09-07T07:33:49;14.43;;;7.60;;
17145;SDS011;8688;54.444;18.444;2023-09-07T07:36:16;11.70;;;8.15;;
17145;SDS011;8688;54.444;18.444;2023-09-07T07:38:44;14.27;;;7.82;;
17145;SDS011;8688;54.444;18.444;2023-09-07T07:41:14;14.60;;;8.10;;
17145;SDS011;8688;54.444;18.444;2023-09-07T07:43:43;15.57;;;8.95;;
17145;SDS011;8688;54.444;18.444;2023-09-07T07:46:10;10.82;;;8.10;;
17145;SDS011;8688;54.444;18.444;2023-09-07T07:48:44;11.57;;;6.90;;
17145;SDS011;8688;54.444;18.444;2023-09-07T07:51:11;14.07;;;7.30;;
17145;SDS011;8688;54.444;18.444;2023-09-07T07:53:39;10.35;;;7.07;;
17145;SDS011;8688;54.444;18.444;2023-09-07T07:56:14;11.90;;;6.43;;
17145;SDS011;8688;54.444;18.444;2023-09-07T07:58:44;9.50;;;6.30;;
17145;SDS011;8688;54.444;18.444;2023-09-07T08:01:15;12.10;;;6.20;;
17145;SDS011;8688;54.444;18.444;2023-09-07T08:03:43;13.75;;;6.43;;
17145;SDS011;8688;54.444;18.444;2023-09-07T08:06:10;7.15;;;6.30;;
17145;SDS011;8688;54.444;18.444;2023-09-07T08:08:38;9.13;;;6.43;;
17145;SDS011;8688;54.444;18.444;2023-09-07T08:11:06;11.43;;;6.32;;
17145;SDS011;8688;54.444;18.444;2023-09-07T08:13:34;6.28;;;5.63;;
17145;SDS011;8688;54.444;18.444;2023-09-07T08:16:04;10.45;;;6.07;;
17145;SDS011;8688;54.444;18.444;2023-09-07T08:18:32;6.97;;;5.50;;
17145;SDS011;8688;54.444;18.444;2023-09-07T08:21:01;8.75;;;5.78;;
17145;SDS011;8688;54.444;18.444;2023-09-07T08:23:28;8.15;;;5.32;;
17145;SDS011;8688;54.444;18.444;2023-09-07T08:25:56;8.73;;;5.50;;
17145;SDS011;8688;54.444;18.444;2023-09-07T08:28:25;11.65;;;5.70;;
17145;SDS011;8688;54.444;18.444;2023-09-07T08:30:54;9.35;;;5.57;;
17145;SDS011;8688;54.444;18.444;2023-09-07T08:33:25;7.25;;;5.28;;
17145;SDS011;8688;54.444;18.444;2023-09-07T08:35:54;6.97;;;5.38;;
17145;SDS011;8688;54.444;18.444;2023-09-07T08:38:22;7.13;;;5.07;;
17145;SDS011;8688;54.444;18.444;2023-09-07T08:40:53;8.10;;;5.40;;
17145;SDS011;8688;54.444;18.444;2023-09-07T08:43:21;8.55;;;5.82;;
17145;SDS011;8688;54.444;18.444;2023-09-07T08:45:51;7.90;;;5.28;;
17145;SDS011;8688;54.444;18.444;2023-09-07T08:48:27;7.93;;;5.38;;
17145;SDS011;8688;54.444;18.444;2023-09-07T08:50:56;9.35;;;5.20;;
17145;SDS011;8688;54.444;18.444;2023-09-07T08:53:24;11.23;;;5.20;;
17145;SDS011;8688;54.444;18.444;2023-09-07T08:55:52;8.20;;;5.05;;
17145;SDS011;8688;54.444;18.444;2023-09-07T08:58:20;10.20;;;5.97;;
17145;SDS011;8688;54.444;18.444;2023-09-07T09:00:50;6.75;;;4.90;;
17145;SDS011;8688;54.444;18.444;2023-09-07T09:03:18;7.93;;;5.20;;
17145;SDS011;8688;54.444;18.444;2023-09-07T09:05:47;5.78;;;4.93;;
17145;SDS011;8688;54.444;18.444;2023-09-07T09:08:17;9.95;;;5.43;;
17145;SDS011;8688;54.444;18.444;2023-09-07T09:10:49;6.55;;;4.90;;
17145;SDS011;8688;54.444;18.444;2023-09-07T09:13:29;7.28;;;5.35;;
17145;SDS011;8688;54.444;18.444;2023-09-07T09:15:58;8.15;;;4.82;;
17145;SDS011;8688;54.444;18.444;2023-09-07T09:18:27;7.05;;;4.85;;
17145;SDS011;8688;54.444;18.444;2023-09-07T09:20:56;8.57;;;4.70;;
17145;SDS011;8688;54.444;18.444;2023-09-07T09:23:24;12.05;;;5.28;;
17145;SDS011;8688;54.444;18.444;2023-09-07T09:25:57;7.85;;;4.82;;
17145;SDS011;8688;54.444;18.444;2023-09-07T09:28:25;6.95;;;5.25;;
17145;SDS011;8688;54.444;18.444;2023-09-07T09:30:53;7.38;;;4.63;;
17145;SDS011;8688;54.444;18.444;2023-09-07T09:33:21;8.20;;;5.10;;
17145;SDS011;8688;54.444;18.444;2023-09-07T09:35:49;7.90;;;4.97;;
17145;SDS011;8688;54.444;18.444;2023-09-07T09:38:18;10.13;;;5.18;;
17145;SDS011;8688;54.444;18.444;2023-09-07T09:40:46;7.85;;;4.40;;
17145;SDS011;8688;54.444;18.444;2023-09-07T09:43:14;9.02;;;5.00;;
17145;SDS011;8688;54.444;18.444;2023-09-07T09:45:42;8.15;;;4.97;;
17145;SDS011;8688;54.444;18.444;2023-09-07T09:48:10;7.35;;;4.88;;
17145;SDS011;8688;54.444;18.444;2023-09-07T09:50:38;7.78;;;4.85;;
17145;SDS011;8688;54.444;18.444;2023-09-07T09:53:09;7.55;;;5.05;;
17145;SDS011;8688;54.444;18.444;2023-09-07T09:55:42;7.90;;;4.72;;
17145;SDS011;8688;54.444;18.444;2023-09-07T09:58:11;9.15;;;4.85;;
17145;SDS011;8688;54.444;18.444;2023-09-07T10:00:40;8.32;;;4.93;;
17145;SDS011;8688;54.444;18.444;2023-09-07T10:03:10;6.75;;;4.63;;
17145;SDS011;8688;54.444;18.444;2023-09-07T10:05:40;6.65;;;4.78;;
17145;SDS011;8688;54.444;18.444;2023-09-07T10:08:12;6.38;;;4.35;;
17145;SDS011;8688;54.444;18.444;2023-09-07T10:10:41;6.55;;;4.35;;
17145;SDS011;8688;54.444;18.444;2023-09-07T10:13:13;10.18;;;4.72;;
17145;SDS011;8688;54.444;18.444;2023-09-07T10:15:42;8.10;;;4.70;;
17145;SDS011;8688;54.444;18.444;2023-09-07T10:18:11;9.65;;;4.95;;
17145;SDS011;8688;54.444;18.444;2023-09-07T10:20:50;9.02;;;4.50;;
17145;SDS011;8688;54.444;18.444;2023-09-07T10:23:20;8.65;;;4.82;;
17145;SDS011;8688;54.444;18.444;2023-09-07T10:25:51;6.75;;;4.60;;
17145;SDS011;8688;54.444;18.444;2023-09-07T10:28:21;7.90;;;4.57;;
17145;SDS011;8688;54.444;18.444;2023-09-07T10:30:59;9.70;;;4.55;;
17145;SDS011;8688;54.444;18.444;2023-09-07T10:33:30;6.45;;;4.65;;
17145;SDS011;8688;54.444;18.444;2023-09-07T10:35:58;6.60;;;4.28;;
17145;SDS011;8688;54.444;18.444;2023-09-07T10:38:26;7.72;;;4.63;;
17145;SDS011;8688;54.444;18.444;2023-09-07T10:40:56;7.72;;;4.47;;
17145;SDS011;8688;54.444;18.444;2023-09-07T10:43:25;6.95;;;4.32;;
17145;SDS011;8688;54.444;18.444;2023-09-07T10:45:53;7.93;;;4.35;;
17145;SDS011;8688;54.444;18.444;2023-09-07T10:48:22;7.88;;;4.57;;
17145;SDS011;8688;54.444;18.444;2023-09-07T10:50:50;7.45;;;4.53;;
17145;SDS011;8688;54.444;18.444;2023-09-07T10:53:24;9.02;;;4.60;;
17145;SDS011;8688;54.444;18.444;2023-09-07T10:55:53;7.95;;;4.65;;
17145;SDS011;8688;54.444;18.444;2023-09-07T10:58:24;5.53;;;4.30;;
17145;SDS011;8688;54.444;18.444;2023-09-07T11:00:53;6.22;;;4.20;;
17145;SDS011;8688;54.444;18.444;2023-09-07T11:03:21;6.32;;;4.30;;
17145;SDS011;8688;54.444;18.444;2023-09-07T11:05:51;5.22;;;4.50;;
17145;SDS011;8688;54.444;18.444;2023-09-07T11:08:20;7.80;;;4.55;;
17145;SDS011;8688;54.444;18.444;2023-09-07T11:10:49;7.13;;;3.75;;
17145;SDS011;8688;54.444;18.444;2023-09-07T11:13:20;5.15;;;4.25;;
17145;SDS011;8688;54.444;18.444;2023-09-07T11:15:48;6.40;;;4.20;;
17145;SDS011;8688;54.444;18.444;2023-09-07T11:18:19;8.00;;;4.50;;
17145;SDS011;8688;54.444;18.444;2023-09-07T11:20:48;7.03;;;4.72;;
17145;SDS011;8688;54.444;18.444;2023-09-07T11:23:18;5.82;;;4.10;;
17145;SDS011;8688;54.444;18.444;2023-09-07T11:25:47;5.05;;;4.22;;
17145;SDS011;8688;54.444;18.444;2023-09-07T11:28:16;5.50;;;4.15;;
17145;SDS011;8688;54.444;18.444;2023-09-07T11:30:52;8.75;;;4.38;;
17145;SDS011;8688;54.444;18.444;2023-09-07T11:33:21;6.78;;;4.13;;
17145;SDS011;8688;54.444;18.444;2023-09-07T11:35:49;5.03;;;3.67;;
17145;SDS011;8688;54.444;18.444;2023-09-07T11:38:17;4.82;;;4.30;;
17145;SDS011;8688;54.444;18.444;2023-09-07T11:40:45;5.53;;;3.78;;
17145;SDS011;8688;54.444;18.444;2023-09-07T11:43:13;5.70;;;4.53;;
17145;SDS011;8688;54.444;18.444;2023-09-07T11:45:42;5.53;;;4.20;;
17145;SDS011;8688;54.444;18.444;2023-09-07T11:48:11;6.15;;;4.10;;
17145;SDS011;8688;54.444;18.444;2023-09-07T11:50:40;7.28;;;4.00;;
17145;SDS011;8688;54.444;18.444;2023-09-07T11:53:08;5.07;;;3.72;;
17145;SDS011;8688;54.444;18.444;2023-09-07T11:55:35;7.10;;;4.03;;
17145;SDS011;8688;54.444;18.444;2023-09-07T11:58:04;6.68;;;3.70;;
17145;SDS011;8688;54.444;18.444;2023-09-07T12:00:32;4.60;;;3.60;;
17145;SDS011;8688;54.444;18.444;2023-09-07T12:03:00;4.70;;;4.00;;
17145;SDS011;8688;54.444;18.444;2023-09-07T12:05:29;5.60;;;3.95;;
17145;SDS011;8688;54.444;18.444;2023-09-07T12:07:57;4.78;;;3.85;;
17145;SDS011;8688;54.444;18.444;2023-09-07T12:10:25;4.53;;;3.70;;
17145;SDS011;8688;54.444;18.444;2023-09-07T12:12:53;6.40;;;4.05;;
17145;SDS011;8688;54.444;18.444;2023-09-07T12:15:20;5.50;;;3.70;;
17145;SDS011;8688;54.444;18.444;2023-09-07T12:17:48;4.75;;;3.60;;
17145;SDS011;8688;54.444;18.444;2023-09-07T12:20:19;5.82;;;4.18;;
17145;SDS011;8688;54.444;18.444;2023-09-07T12:22:48;8.32;;;3.83;;
17145;SDS011;8688;54.444;18.444;2023-09-07T12:25:16;5.13;;;3.70;;
17145;SDS011;8688;54.444;18.444;2023-09-07T12:27:44;5.40;;;3.70;;
17145;SDS011;8688;54.444;18.444;2023-09-07T12:30:12;10.75;;;3.97;;
17145;SDS011;8688;54.444;18.444;2023-09-07T12:32:40;5.68;;;3.65;;
17145;SDS011;8688;54.444;18.444;2023-09-07T12:35:08;4.88;;;3.40;;
17145;SDS011;8688;54.444;18.444;2023-09-07T12:37:35;5.18;;;3.67;;
17145;SDS011;8688;54.444;18.444;2023-09-07T12:40:05;7.72;;;4.10;;
17145;SDS011;8688;54.444;18.444;2023-09-07T12:42:37;4.60;;;3.60;;
17145;SDS011;8688;54.444;18.444;2023-09-07T12:45:07;7.05;;;3.85;;
17145;SDS011;8688;54.444;18.444;2023-09-07T12:47:34;4.82;;;3.42;;
17145;SDS011;8688;54.444;18.444;2023-09-07T12:50:02;5.75;;;4.03;;
17145;SDS011;8688;54.444;18.444;2023-09-07T12:52:32;8.15;;;3.88;;
17145;SDS011;8688;54.444;18.444;2023-09-07T12:55:00;6.47;;;3.63;;
17145;SDS011;8688;54.444;18.444;2023-09-07T12:57:30;5.53;;;3.88;;
17145;SDS011;8688;54.444;18.444;2023-09-07T12:59:57;9.35;;;3.75;;
17145;SDS011;8688;54.444;18.444;2023-09-07T13:02:25;5.20;;;3.83;;
17145;SDS011;8688;54.444;18.444;2023-09-07T13:04:53;8.80;;;3.60;;
17145;SDS011;8688;54.444;18.444;2023-09-07T13:07:22;7.80;;;3.67;;
17145;SDS011;8688;54.444;18.444;2023-09-07T13:09:49;9.75;;;3.85;;
17145;SDS011;8688;54.444;18.444;2023-09-07T13:12:18;5.20;;;3.60;;
17145;SDS011;8688;54.444;18.444;2023-09-07T13:14:47;9.38;;;4.18;;
17145;SDS011;8688;54.444;18.444;2023-09-07T13:17:14;7.20;;;3.85;;
17145;SDS011;8688;54.444;18.444;2023-09-07T13:19:42;10.27;;;3.63;;
17145;SDS011;8688;54.444;18.444;2023-09-07T13:22:10;9.23;;;3.70;;
17145;SDS011;8688;54.444;18.444;2023-09-07T13:24:38;7.63;;;3.95;;
17145;SDS011;8688;54.444;18.444;2023-09-07T13:27:06;5.18;;;3.60;;
17145;SDS011;8688;54.444;18.444;2023-09-07T13:29:35;5.95;;;3.38;;
17145;SDS011;8688;54.444;18.444;2023-09-07T13:32:05;4.68;;;3.38;;
17145;SDS011;8688;54.444;18.444;2023-09-07T13:34:33;5.85;;;3.50;;
17145;SDS011;8688;54.444;18.444;2023-09-07T13:37:00;6.60;;;3.70;;
17145;SDS011;8688;54.444;18.444;2023-09-07T13:39:28;6.63;;;3.85;;
17145;SDS011;8688;54.444;18.444;2023-09-07T13:41:55;6.80;;;3.83;;
17145;SDS011;8688;54.444;18.444;2023-09-07T13:44:23;8.73;;;3.60;;
17145;SDS011;8688;54.444;18.444;2023-09-07T13:46:50;7.00;;;3.30;;
17145;SDS011;8688;54.444;18.444;2023-09-07T13:49:20;6.32;;;3.22;;
17145;SDS011;8688;54.444;18.444;2023-09-07T13:51:48;9.90;;;4.38;;
17145;SDS011;8688;54.444;18.444;2023-09-07T13:54:16;8.82;;;3.88;;
17145;SDS011;8688;54.444;18.444;2023-09-07T13:56:43;5.10;;;3.30;;
17145;SDS011;8688;54.444;18.444;2023-09-07T13:59:12;9.23;;;3.30;;
17145;SDS011;8688;54.444;18.444;2023-09-07T14:01:39;7.78;;;3.78;;
17145;SDS011;8688;54.444;18.444;2023-09-07T14:04:07;12.00;;;3.80;;
17145;SDS011;8688;54.444;18.444;2023-09-07T14:06:36;7.55;;;3.60;;
17145;SDS011;8688;54.444;18.444;2023-09-07T14:09:03;7.10;;;3.42;;
17145;SDS011;8688;54.444;18.444;2023-09-07T14:11:32;6.60;;;3.50;;
17145;SDS011;8688;54.444;18.444;2023-09-07T14:13:59;6.90;;;3.15;;
17145;SDS011;8688;54.444;18.444;2023-09-07T14:16:27;6.45;;;3.47;;
17145;SDS011;8688;54.444;18.444;2023-09-07T14:18:54;9.45;;;3.22;;
17145;SDS011;8688;54.444;18.444;2023-09-07T14:21:22;7.93;;;2.92;;
17145;SDS011;8688;54.444;18.444;2023-09-07T14:23:51;6.40;;;3.08;;
17145;SDS011;8688;54.444;18.444;2023-09-07T14:26:19;6.07;;;3.10;;
17145;SDS011;8688;54.444;18.444;2023-09-07T14:28:46;8.25;;;3.25;;
17145;SDS011;8688;54.444;18.444;2023-09-07T14:31:15;9.00;;;3.47;;
17145;SDS011;8688;54.444;18.444;2023-09-07T14:33:43;5.38;;;2.78;;
17145;SDS011;8688;54.444;18.444;2023-09-07T14:36:10;5.53;;;2.80;;
17145;SDS011;8688;54.444;18.444;2023-09-07T14:38:39;6.85;;;3.13;;
17145;SDS011;8688;54.444;18.444;2023-09-07T14:41:10;5.13;;;2.80;;
17145;SDS011;8688;54.444;18.444;2023-09-07T14:43:44;5.35;;;2.78;;
17145;SDS011;8688;54.444;18.444;2023-09-07T14:46:12;4.88;;;2.92;;